Sharpsville, Indiana
Current Conditions -  °F | °C
As of 2:35 PM on Thursday 27 Nov 2014 (Local Time) from KOKK Reporting Station
Overcast Overcast  
Wind Chill: 16°   Ceiling: 1800
Heat Index: 28°   Visibility: 9mi
Dew Point: 21°   Wind: 17mph
Humidity: 74%   Direction: 310°NW
Pressure: 30.3"   Gusts: NA
Location:  40.38°N, 86.09°W
Report Text: KOKK 271935Z AUTO 31015KT 9SM OVC018 M02/M06 A3030 RMK AO1
Loading
Personal Weather Stations






























Interactive Weather Map New forecast layout! Learn more

10-Day Weather Forecast

Advertisements
Track Severe Weather on mobile